createdAt,value
2023-05-08T00:01:40.447Z,11.92
2023-05-08T00:04:48.830Z,11.93
2023-05-08T00:07:57.339Z,11.89
2023-05-08T00:11:05.757Z,11.94
2023-05-08T00:14:15.097Z,11.96
2023-05-08T00:17:23.767Z,11.95
2023-05-08T00:20:32.433Z,11.93
2023-05-08T00:23:46.748Z,11.87
2023-05-08T00:26:48.544Z,11.88
2023-05-08T00:30:04.745Z,11.88
2023-05-08T00:33:12.813Z,11.88
2023-05-08T00:36:21.455Z,11.89
2023-05-08T00:39:29.764Z,11.96
2023-05-08T00:42:38.742Z,11.96
2023-05-08T00:45:47.797Z,11.81
2023-05-08T00:49:03.786Z,11.76
2023-05-08T00:52:12.998Z,11.70
2023-05-08T00:55:21.812Z,11.68
2023-05-08T00:58:37.920Z,11.73
2023-05-08T01:01:47.917Z,11.71
2023-05-08T01:04:56.486Z,11.62
2023-05-08T01:08:04.770Z,11.63
2023-05-08T01:11:31.764Z,11.56
2023-05-08T01:15:08.782Z,11.52
2023-05-08T01:18:34.785Z,11.48
2023-05-08T01:22:30.524Z,11.40
2023-05-08T01:26:33.760Z,11.49
2023-05-08T01:30:05.808Z,11.43
2023-05-08T01:33:32.791Z,11.44
2023-05-08T01:36:59.778Z,11.46
2023-05-08T01:40:17.437Z,11.48
2023-05-08T01:43:40.771Z,11.43
2023-05-08T01:50:53.779Z,11.29
2023-05-08T01:54:10.125Z,11.27
2023-05-08T01:57:27.791Z,11.23
2023-05-08T02:00:55.860Z,11.31
2023-05-08T02:04:12.830Z,11.32
2023-05-08T02:07:22.905Z,11.28
2023-05-08T02:10:32.770Z,11.23
2023-05-08T02:13:49.771Z,11.25
2023-05-08T02:16:54.769Z,11.30
2023-05-08T02:20:11.923Z,11.33
2023-05-08T02:23:16.147Z,11.27
2023-05-08T02:26:31.767Z,11.30
2023-05-08T02:29:40.712Z,11.25
2023-05-08T02:33:00.289Z,11.34
2023-05-08T02:36:13.607Z,11.37
2023-05-08T02:39:23.770Z,11.36
2023-05-08T02:42:38.785Z,11.29
2023-05-08T02:46:05.773Z,11.27
2023-05-08T02:50:06.788Z,11.23
2023-05-08T02:53:41.992Z,11.17
2023-05-08T02:57:02.777Z,11.16
2023-05-08T03:00:29.766Z,11.16
2023-05-08T03:03:45.907Z,11.20
2023-05-08T03:06:57.489Z,11.22
2023-05-08T03:10:11.996Z,11.18
2023-05-08T03:13:21.493Z,11.07
2023-05-08T03:16:41.776Z,11.05
2023-05-08T03:19:49.804Z,11.03
2023-05-08T03:23:05.969Z,10.93
2023-05-08T03:26:14.752Z,10.92
2023-05-08T03:29:25.608Z,10.87
2023-05-08T03:32:35.783Z,10.90
2023-05-08T03:35:46.364Z,10.83
2023-05-08T03:38:55.788Z,10.75
2023-05-08T03:42:04.922Z,10.64
2023-05-08T03:45:22.793Z,10.66
2023-05-08T03:48:33.742Z,10.75
2023-05-08T03:51:49.742Z,10.82
2023-05-08T03:55:04.757Z,10.92
2023-05-08T03:58:44.733Z,10.95
2023-05-08T04:02:09.789Z,11.05
2023-05-08T04:05:30.717Z,11.14
2023-05-08T04:09:07.781Z,11.22
2023-05-08T04:12:24.786Z,11.28
2023-05-08T04:15:38.796Z,11.33
2023-05-08T04:18:56.818Z,11.50
2023-05-08T04:22:08.236Z,11.56
2023-05-08T04:25:18.803Z,11.62
2023-05-08T04:28:40.780Z,11.67
2023-05-08T04:31:50.580Z,11.67
2023-05-08T04:34:59.781Z,11.78
2023-05-08T04:38:08.563Z,11.86
2023-05-08T04:41:23.823Z,11.90
2023-05-08T04:44:32.762Z,11.85
2023-05-08T04:47:41.440Z,11.88
2023-05-08T04:50:49.767Z,11.88
2023-05-08T04:53:58.300Z,11.90
2023-05-08T04:57:12.777Z,11.84
2023-05-08T05:00:27.788Z,11.78
2023-05-08T05:03:36.346Z,11.64
2023-05-08T05:06:44.864Z,11.55
2023-05-08T05:09:53.343Z,11.60
2023-05-08T05:13:01.838Z,11.61
2023-05-08T05:16:16.845Z,11.70
2023-05-08T05:19:31.801Z,11.62
2023-05-08T05:22:40.615Z,11.64
2023-05-08T05:25:48.770Z,11.66
2023-05-08T05:29:03.793Z,11.55
2023-05-08T05:32:18.884Z,11.48
2023-05-08T05:35:33.799Z,11.61
2023-05-08T05:38:42.556Z,11.69
2023-05-08T05:41:57.769Z,11.70
2023-05-08T05:45:07.163Z,11.73
2023-05-08T05:48:15.778Z,11.58
2023-05-08T05:51:31.787Z,11.55
2023-05-08T05:54:46.801Z,11.51
2023-05-08T05:57:55.389Z,11.57
2023-05-08T06:01:09.792Z,11.60
2023-05-08T06:04:18.729Z,11.58
2023-05-08T06:07:26.786Z,11.86
2023-05-08T06:10:35.693Z,11.98
2023-05-08T06:13:48.200Z,11.98
2023-05-08T06:17:05.001Z,12.09
2023-05-08T06:20:07.922Z,12.24
2023-05-08T06:23:22.806Z,12.22
2023-05-08T06:26:31.360Z,12.30
2023-05-08T06:29:39.990Z,12.27
2023-05-08T06:32:56.035Z,12.25
2023-05-08T06:36:13.790Z,12.27
2023-05-08T06:39:22.818Z,12.48
2023-05-08T06:42:31.374Z,12.52
2023-05-08T06:45:39.784Z,12.54
2023-05-08T06:48:48.516Z,12.64
2023-05-08T06:52:03.789Z,12.56
2023-05-08T06:55:19.316Z,12.58
2023-05-08T06:58:35.667Z,12.90
2023-05-08T07:01:50.844Z,13.15
2023-05-08T07:04:59.840Z,13.12
2023-05-08T07:08:08.839Z,13.26
2023-05-08T07:11:17.806Z,13.40
2023-05-08T07:14:26.462Z,13.45
2023-05-08T07:17:42.808Z,13.68
2023-05-08T07:20:44.891Z,13.94
2023-05-08T07:24:00.043Z,14.22
2023-05-08T07:27:08.799Z,14.38
2023-05-08T07:30:17.507Z,14.86
2023-05-08T07:33:26.851Z,15.02
2023-05-08T07:36:35.544Z,15.46
2023-05-08T07:39:50.778Z,15.84
2023-05-08T07:43:05.796Z,15.86
2023-05-08T07:46:14.805Z,16.00
2023-05-08T07:49:23.583Z,16.13
2023-05-08T07:52:31.817Z,16.41
2023-05-08T07:55:46.835Z,16.80
2023-05-08T07:59:08.808Z,17.02
2023-05-08T08:02:10.713Z,16.82
2023-05-08T08:05:26.836Z,16.98
2023-05-08T08:08:35.393Z,17.33
2023-05-08T08:11:43.834Z,17.80
2023-05-08T08:14:58.822Z,18.04
2023-05-08T08:18:13.845Z,17.83
2023-05-08T08:21:22.468Z,17.92
2023-05-08T08:24:30.813Z,18.06
2023-05-08T08:27:45.846Z,18.15
2023-05-08T08:30:54.426Z,18.39
2023-05-08T08:34:08.799Z,18.54
2023-05-08T08:37:17.374Z,18.89
2023-05-08T08:40:25.806Z,18.58
2023-05-08T08:43:41.801Z,18.60
2023-05-08T08:46:52.638Z,18.55
2023-05-08T08:50:12.013Z,19.08
2023-05-08T08:53:33.836Z,19.75
2023-05-08T08:56:56.841Z,19.17
2023-05-08T09:00:15.947Z,19.38
2023-05-08T09:03:24.940Z,19.44
2023-05-08T09:06:46.412Z,19.45
2023-05-08T09:09:50.430Z,19.65
2023-05-08T09:13:06.542Z,19.88
2023-05-08T09:16:09.613Z,20.15
2023-05-08T09:19:28.044Z,20.07
2023-05-08T09:22:37.453Z,20.61
2023-05-08T09:25:54.845Z,20.10
2023-05-08T09:29:17.811Z,20.62
2023-05-08T09:32:27.962Z,20.81
2023-05-08T09:35:42.847Z,20.94
2023-05-08T09:38:51.366Z,20.68
2023-05-08T09:42:08.819Z,20.51
2023-05-08T09:45:41.919Z,20.89
2023-05-08T09:48:57.895Z,20.83
2023-05-08T09:52:13.875Z,21.11
2023-05-08T09:55:28.811Z,21.04
2023-05-08T09:58:40.382Z,20.95
2023-05-08T10:01:55.812Z,20.83
2023-05-08T10:05:30.078Z,20.64
2023-05-08T10:08:38.827Z,21.04
2023-05-08T10:11:58.820Z,21.05
2023-05-08T10:15:14.817Z,21.34
2023-05-08T10:18:29.300Z,22.04
2023-05-08T10:21:42.796Z,22.30
2023-05-08T10:24:56.086Z,21.56
2023-05-08T10:28:22.823Z,21.80
2023-05-08T10:31:42.890Z,21.67
2023-05-08T10:35:05.824Z,21.66
2023-05-08T10:38:22.834Z,22.70
2023-05-08T10:41:38.820Z,22.94
2023-05-08T10:44:41.204Z,22.10
2023-05-08T10:48:26.984Z,21.71
2023-05-08T10:51:47.773Z,22.00
2023-05-08T10:55:05.937Z,21.70
2023-05-08T10:58:16.107Z,21.95
2023-05-08T11:01:32.846Z,22.35
2023-05-08T11:04:48.790Z,22.10
2023-05-08T11:07:58.790Z,22.30
2023-05-08T11:11:30.836Z,22.15
2023-05-08T11:14:48.866Z,22.02
2023-05-08T11:17:57.466Z,22.32
2023-05-08T11:21:20.897Z,22.57
2023-05-08T11:24:34.873Z,22.82
2023-05-08T11:27:55.839Z,22.26
2023-05-08T11:31:05.952Z,22.46
2023-05-08T11:34:48.846Z,22.64
2023-05-08T11:38:28.872Z,22.09
2023-05-08T11:41:30.855Z,22.11
2023-05-08T11:44:45.854Z,21.59
2023-05-08T11:48:07.940Z,22.13
2023-05-08T11:51:18.340Z,22.19
2023-05-08T11:54:27.859Z,22.05
2023-05-08T11:57:36.543Z,22.29
2023-05-08T12:00:58.864Z,21.70
2023-05-08T12:04:17.035Z,21.38
2023-05-08T12:07:25.843Z,22.00
2023-05-08T12:10:47.849Z,22.21
2023-05-08T12:13:52.168Z,21.56
2023-05-08T12:17:08.906Z,21.62
2023-05-08T12:20:16.446Z,21.72
2023-05-08T12:23:33.879Z,21.62
2023-05-08T12:26:42.534Z,21.64
2023-05-08T12:29:53.623Z,21.60
2023-05-08T12:33:04.481Z,21.75
2023-05-08T12:36:13.380Z,21.88
2023-05-08T12:39:29.843Z,22.37
2023-05-08T12:42:54.954Z,22.43
2023-05-08T12:46:17.860Z,22.14
2023-05-08T12:49:30.417Z,22.09
2023-05-08T12:52:45.856Z,21.99
2023-05-08T12:56:02.879Z,22.36
2023-05-08T12:59:04.753Z,22.47
2023-05-08T13:02:22.133Z,22.20
2023-05-08T13:05:30.442Z,22.20
2023-05-08T13:08:40.863Z,22.12
2023-05-08T13:11:49.754Z,22.27
2023-05-08T13:15:05.065Z,21.95
2023-05-08T13:18:07.199Z,21.93
2023-05-08T13:21:23.050Z,22.03
2023-05-08T13:24:31.855Z,21.92
2023-05-08T13:27:46.859Z,22.19
2023-05-08T13:30:54.860Z,21.95
2023-05-08T13:34:03.628Z,21.89
2023-05-08T13:37:19.088Z,21.85
2023-05-08T13:40:28.033Z,21.65
2023-05-08T13:43:36.936Z,21.64
2023-05-08T13:46:45.546Z,21.33
2023-05-08T13:49:53.879Z,21.79
2023-05-08T13:53:08.984Z,21.89
2023-05-08T13:56:11.888Z,21.83
2023-05-08T13:59:27.888Z,21.55
2023-05-08T14:02:43.975Z,21.53
2023-05-08T14:05:58.856Z,21.48
2023-05-08T14:09:13.858Z,21.54
2023-05-08T14:12:15.851Z,21.34
2023-05-08T14:15:36.865Z,21.32
2023-05-08T14:18:45.499Z,21.18
2023-05-08T14:21:59.870Z,21.12
2023-05-08T14:25:09.077Z,21.46
2023-05-08T14:28:17.877Z,21.50
2023-05-08T14:31:26.502Z,21.35
2023-05-08T14:34:35.880Z,21.16
2023-05-08T14:37:51.096Z,20.95
2023-05-08T14:40:53.154Z,21.28
2023-05-08T14:44:07.877Z,21.26
2023-05-08T14:47:09.699Z,21.18
2023-05-08T14:50:27.899Z,21.12
2023-05-08T14:53:37.030Z,20.92
2023-05-08T14:56:47.745Z,21.09
2023-05-08T15:00:02.979Z,21.20
2023-05-08T15:03:12.065Z,21.08
2023-05-08T15:06:31.898Z,20.89
2023-05-08T15:09:36.023Z,21.05
2023-05-08T15:12:50.955Z,21.13
2023-05-08T15:15:53.191Z,20.73
2023-05-08T15:19:08.940Z,20.72
2023-05-08T15:22:20.861Z,20.58
2023-05-08T15:25:29.424Z,20.67
2023-05-08T15:28:37.948Z,21.01
2023-05-08T15:31:46.534Z,20.87
2023-05-08T15:34:54.873Z,20.95
2023-05-08T15:38:03.549Z,20.79
2023-05-08T15:41:14.809Z,20.62
2023-05-08T15:44:24.805Z,20.63
2023-05-08T15:47:40.892Z,20.67
2023-05-08T15:50:48.905Z,20.49
2023-05-08T15:53:57.963Z,20.14
2023-05-08T15:57:12.901Z,20.10
2023-05-08T16:00:23.227Z,19.92
2023-05-08T16:03:33.595Z,19.82
2023-05-08T16:06:48.921Z,19.95
2023-05-08T16:09:57.485Z,19.87
2023-05-08T16:13:05.938Z,19.93
2023-05-08T16:16:20.924Z,19.87
2023-05-08T16:19:28.987Z,19.84
2023-05-08T16:22:43.919Z,19.56
2023-05-08T16:25:59.898Z,19.10
2023-05-08T16:29:01.963Z,18.83
2023-05-08T16:32:16.898Z,18.81
2023-05-08T16:35:25.640Z,18.47
2023-05-08T16:38:33.882Z,18.07
2023-05-08T16:41:48.917Z,17.96
2023-05-08T16:44:57.554Z,17.84
2023-05-08T16:48:11.905Z,17.63
2023-05-08T16:51:26.989Z,17.34
2023-05-08T16:54:35.556Z,17.41
2023-05-08T16:57:49.920Z,17.37
2023-05-08T17:01:05.185Z,17.44
2023-05-08T17:04:13.919Z,17.30
2023-05-08T17:07:31.913Z,17.16
2023-05-08T17:10:46.894Z,17.09
2023-05-08T17:14:01.918Z,16.82
2023-05-08T17:17:10.503Z,16.74
2023-05-08T17:20:19.932Z,16.64
2023-05-08T17:23:28.540Z,16.65
2023-05-08T17:26:38.972Z,16.49
2023-05-08T17:29:47.999Z,16.30
2023-05-08T17:33:02.975Z,16.31
2023-05-08T17:36:17.907Z,16.23
2023-05-08T17:39:20.047Z,16.01
2023-05-08T17:42:34.905Z,15.85
2023-05-08T17:45:42.948Z,15.67
2023-05-08T17:48:57.888Z,15.59
2023-05-08T17:52:12.916Z,15.63
2023-05-08T17:55:21.505Z,15.37
2023-05-08T17:58:35.905Z,15.27
2023-05-08T18:01:51.020Z,15.17
2023-05-08T18:05:05.899Z,15.10
2023-05-08T18:08:20.923Z,14.93
2023-05-08T18:11:35.915Z,14.89
2023-05-08T18:14:50.900Z,14.68
2023-05-08T18:18:05.942Z,14.60
2023-05-08T18:21:20.916Z,14.48
2023-05-08T18:24:36.885Z,14.56
2023-05-08T18:27:51.932Z,14.40
2023-05-08T18:31:00.938Z,14.38
2023-05-08T18:34:15.918Z,14.31
2023-05-08T18:37:17.955Z,14.31
2023-05-08T18:40:32.916Z,14.29
2023-05-08T18:43:41.780Z,14.13
2023-05-08T18:46:49.928Z,14.01
2023-05-08T18:50:04.933Z,13.99
2023-05-08T18:53:13.836Z,13.96
2023-05-08T18:56:28.949Z,13.90
2023-05-08T18:59:37.769Z,13.70
2023-05-08T19:03:00.390Z,13.29
2023-05-08T19:06:14.915Z,13.55
2023-05-08T19:09:29.888Z,13.54
2023-05-08T19:12:32.027Z,13.39
2023-05-08T19:15:47.172Z,13.44
2023-05-08T19:19:01.930Z,13.31
2023-05-08T19:22:11.119Z,13.39
2023-05-08T19:25:26.944Z,13.40
2023-05-08T19:28:29.075Z,13.24
2023-05-08T19:31:43.983Z,13.29
2023-05-08T19:34:52.696Z,13.22
2023-05-08T19:38:00.917Z,13.11
2023-05-08T19:41:17.940Z,13.02
2023-05-08T19:44:25.938Z,13.12
2023-05-08T19:47:34.610Z,13.07
2023-05-08T19:50:50.586Z,13.02
2023-05-08T19:54:07.032Z,13.00
2023-05-08T19:57:21.987Z,12.88
2023-05-08T20:00:30.152Z,12.86
2023-05-08T20:03:44.989Z,12.86
2023-05-08T20:06:53.912Z,12.86
2023-05-08T20:10:02.595Z,12.79
2023-05-08T20:13:10.998Z,12.72
2023-05-08T20:16:26.000Z,12.73
2023-05-08T20:19:40.964Z,12.67
2023-05-08T20:22:48.935Z,12.70
2023-05-08T20:26:03.924Z,12.69
2023-05-08T20:29:05.763Z,12.57
2023-05-08T20:32:20.933Z,12.61
2023-05-08T20:35:35.921Z,12.55
2023-05-08T20:38:50.913Z,12.54
2023-05-08T20:41:59.935Z,12.50
2023-05-08T20:45:16.076Z,12.42
2023-05-08T20:48:30.970Z,12.48
2023-05-08T20:51:32.817Z,12.48
2023-05-08T20:54:47.920Z,12.39
2023-05-08T20:58:02.911Z,12.33
2023-05-08T21:01:24.978Z,12.29
2023-05-08T21:04:33.683Z,12.29
2023-05-08T21:07:41.948Z,12.29
2023-05-08T21:10:51.270Z,12.29
2023-05-08T21:14:05.904Z,12.29
2023-05-08T21:17:13.917Z,12.28
2023-05-08T21:20:29.903Z,12.21
2023-05-08T21:23:44.943Z,12.19
2023-05-08T21:26:59.903Z,12.21
2023-05-08T21:30:01.881Z,12.13
2023-05-08T21:33:16.922Z,12.11
2023-05-08T21:36:24.972Z,12.08
2023-05-08T21:39:33.470Z,12.08
2023-05-08T21:42:41.939Z,12.02
2023-05-08T21:45:50.463Z,12.02
2023-05-08T21:49:04.942Z,11.87
2023-05-08T21:52:12.925Z,11.78
2023-05-08T21:55:22.053Z,11.74
2023-05-08T21:58:30.904Z,11.73
2023-05-08T22:01:46.242Z,11.73
2023-05-08T22:04:54.937Z,11.54
2023-05-08T22:08:09.938Z,11.60
2023-05-08T22:11:11.826Z,11.59
2023-05-08T22:14:26.906Z,11.54
2023-05-08T22:17:41.949Z,11.48
2023-05-08T22:20:50.710Z,11.52
2023-05-08T22:23:58.903Z,11.53
2023-05-08T22:27:13.930Z,11.48
2023-05-08T22:30:22.921Z,11.44
2023-05-08T22:33:31.536Z,11.38
2023-05-08T22:36:39.913Z,11.35
2023-05-08T22:39:55.930Z,11.20
2023-05-08T22:42:58.027Z,11.19
2023-05-08T22:46:13.002Z,11.25
2023-05-08T22:49:21.569Z,11.28
2023-05-08T22:52:29.947Z,11.25
2023-05-08T22:55:38.493Z,11.10
2023-05-08T22:58:46.948Z,11.11
2023-05-08T23:02:08.928Z,11.02
2023-05-08T23:05:17.573Z,10.96
2023-05-08T23:08:25.931Z,10.96
2023-05-08T23:11:35.484Z,10.97
2023-05-08T23:14:49.956Z,10.99
2023-05-08T23:18:04.972Z,10.98
2023-05-08T23:21:14.933Z,10.95
2023-05-08T23:24:29.927Z,10.85
2023-05-08T23:27:37.914Z,10.84
2023-05-08T23:30:46.483Z,10.89
2023-05-08T23:34:00.940Z,10.84
2023-05-08T23:37:09.557Z,10.80
2023-05-08T23:40:18.920Z,10.71
2023-05-08T23:43:27.616Z,10.56
2023-05-08T23:46:35.960Z,10.47
2023-05-08T23:49:44.670Z,10.42
2023-05-08T23:52:52.927Z,10.40
2023-05-08T23:56:07.934Z,10.43
2023-05-08T23:59:09.908Z,10.26
